Airfield :
LOGIN :

Register | Disclaimer

   EN    FR    IT 

 










Legend :    VFR   Marginal VFR   IFR   Intensive IFR   Very Intensive IFR
Visi :
Ceiling :
>= 8 km
>= 3000ft
5 to 8 km
1000 to 3000 ft
1500m to 5 km
500 to 1000 ft
800 to 1500m
200 to 500 ft
< 800m
< 200 ft
Symbols :   Thunderstorms  Fog  Heavy snow  Heavy precipitations  Wind > 20 kt
SIGMETs :     Misc.  Thunderstorms  Icing  Turbulence  Mountain Waves  Volcanic Ashes






- Airport Elevation : 359 ft
- IATA code : BVA


LFOB - Beauvais

CURRENT METAR :
  • 250130Z AUTO 20011KT 160V220 9999 SCT025 OVC031 09/06 Q0997 TEMPO 4000 RA BKN008 BKN013CB

EXPIRED METARs :
  • 250100Z AUTO 19011KT 160V220 9999 BKN028 OVC035 09/06 Q0997 TEMPO 4000 RA BKN008 BKN013CB
  • 250030Z AUTO 19012KT 9999 BKN035 09/06 Q0997 TEMPO 4000 RA BKN008 BKN013CB
  • 250000Z AUTO 19010KT CAVOK 08/06 Q0997 NOSIG
  • 242330Z AUTO 20010KT CAVOK 09/06 Q0997 NOSIG
  • 242300Z AUTO 21013KT CAVOK 09/06 Q0997 NOSIG

TAF TAF LFOB
Valid from the 25 at 00:00 until the 26 at 00:00 UTC


242300Z 2500/2524 21015KT 9999 BKN030
TEMPO 2502/2509 4000 RA BKN008 BKN013CB
BECMG 2508/2510 31013KT
TEMPO 2509/2517 2000 SHRA BKN030CB
PROB30
TEMPO 2509/2517 0700 TSRA
BECMG 2512/2514 31020G30KT
BECMG 2517/2519 31013KT
ATIS : +33 3 44 11 49 28



MET'MAP, your aeronautical weather chart ! - Copyright ORBIFLY December 2007 - Disclaimer

ORBIFLY MET'MAP TEAM :

Programming & Development : Alexandra Zaïnal
Concept & original design : Baudouin d'Aumeries
Assistance for programming : Marc-Olivier Méhu
Technical & hardware support : Manuel Goepfert

Contact : metmap@orbifly.com




SOURCES & CREDITS :

   NOAA